createdAt,value
2019-05-22T00:01:10.177Z,74.70
2019-05-22T00:03:27.341Z,75.00
2019-05-22T00:05:34.763Z,74.90
2019-05-22T00:07:38.665Z,75.00
2019-05-22T00:09:43.596Z,75.10
2019-05-22T00:11:48.551Z,75.00
2019-05-22T00:13:51.982Z,75.10
2019-05-22T00:15:56.927Z,75.10
2019-05-22T00:18:01.843Z,75.10
2019-05-22T00:20:06.489Z,75.00
2019-05-22T00:22:11.432Z,75.10
2019-05-22T00:24:15.550Z,75.00
2019-05-22T00:26:19.539Z,75.00
2019-05-22T00:28:23.766Z,75.00
2019-05-22T00:30:28.876Z,75.00
2019-05-22T00:32:33.772Z,75.20
2019-05-22T00:34:37.577Z,75.10
2019-05-22T00:36:40.825Z,75.10
2019-05-22T00:38:44.561Z,75.00
2019-05-22T00:40:53.193Z,75.80
2019-05-22T00:43:04.130Z,75.00
2019-05-22T00:45:04.753Z,75.10
2019-05-22T00:47:09.672Z,75.10
2019-05-22T00:49:13.881Z,75.20
2019-05-22T00:51:21.744Z,74.90
2019-05-22T00:53:38.742Z,75.00
2019-05-22T00:55:43.622Z,75.20
2019-05-22T00:57:48.524Z,75.40
2019-05-22T00:59:53.910Z,75.60
2019-05-22T01:02:14.749Z,75.40
2019-05-22T01:04:22.426Z,75.50
2019-05-22T01:06:26.219Z,75.60
2019-05-22T01:08:29.729Z,75.70
2019-05-22T01:10:33.066Z,76.40
2019-05-22T01:12:37.990Z,75.70
2019-05-22T01:14:43.122Z,75.50
2019-05-22T01:16:48.285Z,75.60
2019-05-22T01:18:53.254Z,75.50
2019-05-22T01:20:58.930Z,75.60
2019-05-22T01:23:02.744Z,75.50
2019-05-22T01:25:06.819Z,75.50
2019-05-22T01:27:11.226Z,75.30
2019-05-22T01:29:16.271Z,75.40
2019-05-22T01:31:21.185Z,75.30
2019-05-22T01:33:26.177Z,75.10
2019-05-22T01:35:36.793Z,75.10
2019-05-22T01:37:41.673Z,75.30
2019-05-22T01:39:57.952Z,75.20
2019-05-22T01:42:02.109Z,75.50
2019-05-22T01:44:06.905Z,75.70
2019-05-22T01:46:11.813Z,75.80
2019-05-22T01:48:17.155Z,75.90
2019-05-22T01:50:38.594Z,75.70
2019-05-22T01:52:42.624Z,75.60
2019-05-22T01:54:46.614Z,75.50
2019-05-22T01:56:51.472Z,75.70
2019-05-22T01:58:54.865Z,76.60
2019-05-22T02:00:58.905Z,75.60
2019-05-22T02:03:02.832Z,75.60
2019-05-22T02:05:08.414Z,75.50
2019-05-22T02:07:11.713Z,75.60
2019-05-22T02:09:21.602Z,75.80
2019-05-22T02:11:26.490Z,75.30
2019-05-22T02:13:39.083Z,75.30
2019-05-22T02:15:43.569Z,75.30
2019-05-22T02:17:48.121Z,75.40
2019-05-22T02:19:51.746Z,75.40
2019-05-22T02:21:55.384Z,75.50
2019-05-22T02:23:58.634Z,75.30
2019-05-22T02:26:04.800Z,75.30
2019-05-22T02:28:09.087Z,75.40
2019-05-22T02:30:13.992Z,75.20
2019-05-22T02:32:18.881Z,75.30
2019-05-22T02:34:22.716Z,75.40
2019-05-22T02:36:26.996Z,75.30
2019-05-22T02:38:31.594Z,75.50
2019-05-22T02:40:36.473Z,75.40
2019-05-22T02:42:40.326Z,75.40
2019-05-22T02:44:45.700Z,75.30
2019-05-22T02:46:49.705Z,75.20
2019-05-22T02:48:53.010Z,75.30
2019-05-22T02:50:57.105Z,75.20
2019-05-22T02:53:00.490Z,75.00
2019-05-22T02:55:06.213Z,75.00
2019-05-22T02:57:11.206Z,74.70
2019-05-22T02:59:15.197Z,74.50
2019-05-22T03:01:19.494Z,74.80
2019-05-22T03:03:23.728Z,74.90
2019-05-22T03:05:27.384Z,74.90
2019-05-22T03:07:31.605Z,74.50
2019-05-22T03:09:35.334Z,74.50
2019-05-22T03:11:56.822Z,74.70
2019-05-22T03:14:01.572Z,74.90
2019-05-22T03:16:06.542Z,75.00
2019-05-22T03:18:10.421Z,74.90
2019-05-22T03:20:17.517Z,75.10
2019-05-22T03:22:37.917Z,75.20
2019-05-22T03:24:41.309Z,75.20
2019-05-22T03:26:47.879Z,75.40
2019-05-22T03:28:51.157Z,75.50
2019-05-22T03:30:54.398Z,75.40
2019-05-22T03:32:59.255Z,75.50
2019-05-22T03:35:02.544Z,75.40
2019-05-22T03:37:06.953Z,75.20
2019-05-22T03:39:11.030Z,75.30
2019-05-22T03:41:14.634Z,75.50
2019-05-22T03:43:20.677Z,75.50
2019-05-22T03:45:25.174Z,75.70
2019-05-22T03:47:28.422Z,75.70
2019-05-22T03:49:32.161Z,75.70
2019-05-22T03:51:35.667Z,75.80
2019-05-22T03:53:39.186Z,76.00
2019-05-22T03:55:42.422Z,76.00
2019-05-22T03:57:45.693Z,75.70
2019-05-22T03:59:49.222Z,75.90
2019-05-22T04:01:52.469Z,75.80
2019-05-22T04:03:56.818Z,75.90
2019-05-22T04:06:01.135Z,75.90
2019-05-22T04:08:05.153Z,75.80
2019-05-22T04:10:10.384Z,75.80
2019-05-22T04:12:14.364Z,75.70
2019-05-22T04:14:18.381Z,76.00
2019-05-22T04:16:24.735Z,75.90
2019-05-22T04:18:28.062Z,75.90
2019-05-22T04:20:31.349Z,76.40
2019-05-22T04:22:35.117Z,75.50
2019-05-22T04:24:40.794Z,75.40
2019-05-22T04:26:44.092Z,75.50
2019-05-22T04:28:49.046Z,75.50
2019-05-22T04:30:52.723Z,75.70
2019-05-22T04:32:56.740Z,75.70
2019-05-22T04:35:00.378Z,75.60
2019-05-22T04:37:05.402Z,75.70
2019-05-22T04:39:13.011Z,75.80
2019-05-22T04:41:16.507Z,75.80
2019-05-22T04:43:21.220Z,75.70
2019-05-22T04:45:25.519Z,75.80
2019-05-22T04:47:29.746Z,75.20
2019-05-22T04:49:33.381Z,75.10
2019-05-22T04:51:36.726Z,75.00
2019-05-22T04:53:40.415Z,75.00
2019-05-22T04:55:43.746Z,74.80
2019-05-22T04:57:47.392Z,74.90
2019-05-22T04:59:51.266Z,74.90
2019-05-22T05:01:54.822Z,75.00
2019-05-22T05:03:58.339Z,75.00
2019-05-22T05:06:06.359Z,75.30
2019-05-22T05:08:07.380Z,75.30
2019-05-22T05:10:10.815Z,75.00
2019-05-22T05:12:14.067Z,75.10
2019-05-22T05:14:17.330Z,75.00
2019-05-22T05:16:20.620Z,75.10
2019-05-22T05:18:23.862Z,74.50
2019-05-22T05:20:27.126Z,74.50
2019-05-22T05:22:42.297Z,75.70
2019-05-22T05:24:45.649Z,75.10
2019-05-22T05:26:48.992Z,75.20
2019-05-22T05:28:52.327Z,75.30
2019-05-22T05:30:55.668Z,75.40
2019-05-22T05:32:59.694Z,75.50
2019-05-22T05:35:05.450Z,75.40
2019-05-22T05:37:10.123Z,75.10
2019-05-22T05:39:33.522Z,75.30
2019-05-22T05:41:36.757Z,75.40
2019-05-22T05:43:40.370Z,75.40
2019-05-22T05:45:44.500Z,75.00
2019-05-22T05:47:47.828Z,75.00
2019-05-22T05:49:51.192Z,75.00
2019-05-22T05:51:56.161Z,75.00
2019-05-22T05:54:02.364Z,75.10
2019-05-22T05:56:14.158Z,75.20
2019-05-22T05:58:28.572Z,75.20
2019-05-22T06:00:33.551Z,75.30
2019-05-22T06:02:37.854Z,75.40
2019-05-22T06:04:41.099Z,75.20
2019-05-22T06:06:59.777Z,74.90
2019-05-22T06:09:00.499Z,75.20
2019-05-22T06:11:26.619Z,75.00
2019-05-22T06:13:30.572Z,74.90
2019-05-22T06:15:47.064Z,75.00
2019-05-22T06:18:10.673Z,75.10
2019-05-22T06:20:16.988Z,75.30
2019-05-22T06:22:21.679Z,75.00
2019-05-22T06:24:35.920Z,75.10
2019-05-22T06:26:45.229Z,74.90
2019-05-22T06:28:48.521Z,74.30
2019-05-22T06:30:52.043Z,74.50
2019-05-22T06:33:12.416Z,74.80
2019-05-22T06:35:15.992Z,75.00
2019-05-22T06:37:31.976Z,75.10
2019-05-22T06:39:35.287Z,75.20
2019-05-22T06:41:38.921Z,75.30
2019-05-22T06:43:45.610Z,75.30
2019-05-22T06:45:48.879Z,75.00
2019-05-22T06:47:52.129Z,74.90
2019-05-22T06:49:56.123Z,75.00
2019-05-22T06:51:59.396Z,74.70
2019-05-22T06:54:02.654Z,74.80
2019-05-22T06:56:05.986Z,75.30
2019-05-22T06:58:09.243Z,75.30
2019-05-22T07:00:14.861Z,75.20
2019-05-22T07:02:17.791Z,75.40
2019-05-22T07:04:21.734Z,75.40
2019-05-22T07:06:25.194Z,75.20
2019-05-22T07:08:28.425Z,75.10
2019-05-22T07:10:31.728Z,74.80
2019-05-22T07:12:35.930Z,74.60
2019-05-22T07:14:43.308Z,74.70
2019-05-22T07:16:48.499Z,74.60
2019-05-22T07:18:51.765Z,74.90
2019-05-22T07:20:56.669Z,75.30
2019-05-22T07:23:01.564Z,74.90
2019-05-22T07:25:09.421Z,75.20
2019-05-22T07:27:25.270Z,75.30
2019-05-22T07:29:29.426Z,75.40
2019-05-22T07:31:33.182Z,75.30
2019-05-22T07:33:36.439Z,75.20
2019-05-22T07:35:56.697Z,75.30
2019-05-22T07:37:46.552Z,75.40
2019-05-22T07:39:49.960Z,75.50
2019-05-22T07:41:53.318Z,75.10
2019-05-22T07:43:56.570Z,74.90
2019-05-22T07:46:00.596Z,75.00
2019-05-22T07:48:04.466Z,75.10
2019-05-22T07:50:08.035Z,74.90
2019-05-22T07:52:11.630Z,74.70
2019-05-22T07:54:14.873Z,75.00
2019-05-22T07:56:18.329Z,75.20
2019-05-22T07:58:21.657Z,75.50
2019-05-22T08:00:24.932Z,75.20
2019-05-22T08:02:32.117Z,75.10
2019-05-22T08:04:35.549Z,75.20
2019-05-22T08:06:38.885Z,75.10
2019-05-22T08:08:42.875Z,75.30
2019-05-22T08:10:46.579Z,75.40
2019-05-22T08:12:50.224Z,75.20
2019-05-22T08:14:53.478Z,75.10
2019-05-22T08:16:56.819Z,75.10
2019-05-22T08:19:00.374Z,75.20
2019-05-22T08:21:03.820Z,75.00
2019-05-22T08:23:07.512Z,74.90
2019-05-22T08:25:10.771Z,74.90
2019-05-22T08:27:14.871Z,75.00
2019-05-22T08:29:18.133Z,75.20
2019-05-22T08:31:22.916Z,74.80
2019-05-22T08:33:26.449Z,74.90
2019-05-22T08:35:29.696Z,75.10
2019-05-22T08:37:33.222Z,75.00
2019-05-22T08:39:37.981Z,74.70
2019-05-22T08:41:42.482Z,75.00
2019-05-22T08:44:14.457Z,75.20
2019-05-22T08:45:51.361Z,74.90
2019-05-22T08:47:54.793Z,75.10
2019-05-22T08:49:58.050Z,75.40
2019-05-22T08:52:01.393Z,75.50
2019-05-22T08:54:06.031Z,75.10
2019-05-22T08:56:09.594Z,75.30
2019-05-22T08:58:14.571Z,75.30
2019-05-22T09:00:20.627Z,75.40
2019-05-22T09:02:23.870Z,75.50
2019-05-22T09:04:27.143Z,75.30
2019-05-22T09:06:30.372Z,75.00
2019-05-22T09:08:33.671Z,74.80
2019-05-22T09:10:37.002Z,75.10
2019-05-22T09:12:42.163Z,74.80
2019-05-22T09:14:45.435Z,74.30
2019-05-22T09:16:48.703Z,74.20
2019-05-22T09:18:52.452Z,73.90
2019-05-22T09:20:57.898Z,73.40
2019-05-22T09:23:01.526Z,73.70
2019-05-22T09:25:07.268Z,74.00
2019-05-22T09:27:11.413Z,74.40
2019-05-22T09:29:14.667Z,74.70
2019-05-22T09:31:18.216Z,75.00
2019-05-22T09:33:21.525Z,75.00
2019-05-22T09:35:25.091Z,74.70
2019-05-22T09:37:28.625Z,74.70
2019-05-22T09:39:32.174Z,74.60
2019-05-22T09:41:36.021Z,74.40
2019-05-22T09:43:39.373Z,74.40
2019-05-22T09:45:42.713Z,74.40
2019-05-22T09:47:46.105Z,74.50
2019-05-22T09:49:49.427Z,74.60
2019-05-22T09:51:52.959Z,74.70
2019-05-22T09:53:56.791Z,75.00
2019-05-22T09:56:00.177Z,74.30
2019-05-22T09:58:03.500Z,74.60
2019-05-22T10:00:10.843Z,74.70
2019-05-22T10:02:14.475Z,74.80
2019-05-22T10:04:17.818Z,74.60
2019-05-22T10:06:21.860Z,74.50
2019-05-22T10:08:25.271Z,74.40
2019-05-22T10:10:28.998Z,73.80
2019-05-22T10:12:32.338Z,73.50
2019-05-22T10:14:36.121Z,73.80
2019-05-22T10:16:39.388Z,74.10
2019-05-22T10:18:42.718Z,73.70
2019-05-22T10:20:45.997Z,73.80
2019-05-22T10:22:49.355Z,74.10
2019-05-22T10:24:52.670Z,74.00
2019-05-22T10:26:56.145Z,73.90
2019-05-22T10:28:59.517Z,74.20
2019-05-22T10:31:03.472Z,74.30
2019-05-22T10:33:07.604Z,74.50
2019-05-22T10:35:12.346Z,74.30
2019-05-22T10:37:16.425Z,73.80
2019-05-22T10:39:20.643Z,73.80
2019-05-22T10:41:23.902Z,73.80
2019-05-22T10:43:27.296Z,73.40
2019-05-22T10:45:30.688Z,73.30
2019-05-22T10:47:34.519Z,72.90
2019-05-22T10:49:38.104Z,74.00
2019-05-22T10:51:41.427Z,72.90
2019-05-22T10:53:44.707Z,73.50
2019-05-22T10:55:47.969Z,73.20
2019-05-22T10:57:51.447Z,73.10
2019-05-22T10:59:54.879Z,72.10
2019-05-22T11:01:58.164Z,71.40
2019-05-22T11:04:01.440Z,71.70
2019-05-22T11:06:07.474Z,71.70
2019-05-22T11:08:10.319Z,71.40
2019-05-22T11:10:13.660Z,70.90
2019-05-22T11:12:17.182Z,71.00
2019-05-22T11:14:20.462Z,71.00
2019-05-22T11:16:23.772Z,71.00
2019-05-22T11:18:27.106Z,70.80
2019-05-22T11:20:31.671Z,70.20
2019-05-22T11:22:36.360Z,69.20
2019-05-22T11:24:39.624Z,68.20
2019-05-22T11:26:43.696Z,69.40
2019-05-22T11:28:47.531Z,69.80
2019-05-22T11:30:51.168Z,69.40
2019-05-22T11:32:56.007Z,69.60
2019-05-22T11:34:59.413Z,70.20
2019-05-22T11:37:03.140Z,71.30
2019-05-22T11:39:09.024Z,70.20
2019-05-22T11:41:12.707Z,69.60
2019-05-22T11:43:16.042Z,69.40
2019-05-22T11:45:19.596Z,69.30
2019-05-22T11:47:23.108Z,68.70
2019-05-22T11:49:26.831Z,68.30
2019-05-22T11:51:30.107Z,68.40
2019-05-22T11:53:33.330Z,68.10
2019-05-22T11:55:45.259Z,67.70
2019-05-22T11:57:42.563Z,67.60
2019-05-22T11:59:46.174Z,67.70
2019-05-22T12:01:49.719Z,67.90
2019-05-22T12:03:53.027Z,67.90
2019-05-22T12:05:56.372Z,67.60
2019-05-22T12:08:00.027Z,66.40
2019-05-22T12:10:04.198Z,66.60
2019-05-22T12:12:07.986Z,66.00
2019-05-22T12:14:11.264Z,65.60
2019-05-22T12:16:15.778Z,66.00
2019-05-22T12:18:19.202Z,65.50
2019-05-22T12:20:22.801Z,65.80
2019-05-22T12:22:26.081Z,65.20
2019-05-22T12:24:36.639Z,64.90
2019-05-22T12:26:34.355Z,64.50
2019-05-22T12:28:37.613Z,65.50
2019-05-22T12:30:41.437Z,65.50
2019-05-22T12:32:44.699Z,64.90
2019-05-22T12:34:49.541Z,64.60
2019-05-22T12:36:53.770Z,63.20
2019-05-22T12:38:57.318Z,63.50
2019-05-22T12:41:01.307Z,64.30
2019-05-22T12:43:05.516Z,64.30
2019-05-22T12:45:09.254Z,63.30
2019-05-22T12:47:12.799Z,63.60
2019-05-22T12:49:16.137Z,62.80
2019-05-22T12:51:20.673Z,62.00
2019-05-22T12:53:24.169Z,62.10
2019-05-22T12:55:27.481Z,62.10
2019-05-22T12:57:30.826Z,61.70
2019-05-22T12:59:34.164Z,61.60
2019-05-22T13:01:38.703Z,62.10
2019-05-22T13:03:41.986Z,62.20
2019-05-22T13:05:45.743Z,61.80
2019-05-22T13:07:49.422Z,61.60
2019-05-22T13:09:52.747Z,61.20
2019-05-22T13:11:56.405Z,60.90
2019-05-22T13:13:59.729Z,60.60
2019-05-22T13:16:03.181Z,60.70
2019-05-22T13:18:08.208Z,61.10
2019-05-22T13:20:13.219Z,61.10
2019-05-22T13:22:16.476Z,62.10
2019-05-22T13:24:20.482Z,63.00
2019-05-22T13:26:25.276Z,62.30
2019-05-22T13:28:29.217Z,61.70
2019-05-22T13:30:32.547Z,61.40
2019-05-22T13:32:35.810Z,62.00
2019-05-22T13:34:39.276Z,60.70
2019-05-22T13:36:42.678Z,60.60
2019-05-22T13:38:46.064Z,60.50
2019-05-22T13:40:49.857Z,61.50
2019-05-22T13:42:55.833Z,60.50
2019-05-22T13:44:59.116Z,61.10
2019-05-22T13:47:02.800Z,60.10
2019-05-22T13:49:06.210Z,59.60
2019-05-22T13:51:10.807Z,57.50
2019-05-22T13:53:14.614Z,57.10
2019-05-22T13:55:17.950Z,55.40
2019-05-22T13:57:21.567Z,55.00
2019-05-22T13:59:25.426Z,54.80
2019-05-22T14:01:28.744Z,54.20
2019-05-22T14:03:32.528Z,54.50
2019-05-22T14:05:36.464Z,54.20
2019-05-22T14:07:39.752Z,55.10
2019-05-22T14:09:43.608Z,55.40
2019-05-22T14:11:46.933Z,55.30
2019-05-22T14:13:50.600Z,55.70
2019-05-22T14:15:56.899Z,56.30
2019-05-22T14:17:59.201Z,55.80
2019-05-22T14:20:02.648Z,55.30
2019-05-22T14:22:06.700Z,54.90
2019-05-22T14:24:10.025Z,54.60
2019-05-22T14:26:13.420Z,53.80
2019-05-22T14:28:17.753Z,53.00
2019-05-22T14:30:22.671Z,53.00
2019-05-22T14:32:29.819Z,52.80
2019-05-22T14:34:31.259Z,53.90
2019-05-22T14:36:34.536Z,54.20
2019-05-22T14:38:37.816Z,52.30
2019-05-22T14:40:41.120Z,52.10
2019-05-22T14:42:44.570Z,52.30
2019-05-22T14:44:47.829Z,52.60
2019-05-22T14:46:51.096Z,53.00
2019-05-22T14:48:54.446Z,53.00
2019-05-22T14:50:58.292Z,52.30
2019-05-22T14:53:01.671Z,52.10
2019-05-22T14:55:06.520Z,51.70
2019-05-22T14:57:10.889Z,50.80
2019-05-22T14:59:14.171Z,50.80
2019-05-22T15:01:17.540Z,49.70
2019-05-22T15:03:20.973Z,49.40
2019-05-22T15:05:24.234Z,50.00
2019-05-22T15:07:27.523Z,50.30
2019-05-22T15:09:30.808Z,50.20
2019-05-22T15:11:34.349Z,49.80
2019-05-22T15:13:37.624Z,49.10
2019-05-22T15:15:41.060Z,49.10
2019-05-22T15:17:44.368Z,48.70
2019-05-22T15:19:47.652Z,48.10
2019-05-22T15:21:50.956Z,48.50
2019-05-22T15:23:55.122Z,48.20
2019-05-22T15:25:59.274Z,48.60
2019-05-22T15:28:02.894Z,47.50
2019-05-22T15:30:07.178Z,47.50
2019-05-22T15:32:10.551Z,48.70
2019-05-22T15:34:13.999Z,46.70
2019-05-22T15:36:19.948Z,46.60
2019-05-22T15:38:23.903Z,46.70
2019-05-22T15:40:28.003Z,46.80
2019-05-22T15:42:36.927Z,46.00
2019-05-22T15:44:40.283Z,45.70
2019-05-22T15:46:43.935Z,46.80
2019-05-22T15:48:47.588Z,44.80
2019-05-22T15:50:51.163Z,45.60
2019-05-22T15:52:55.685Z,45.50
2019-05-22T15:54:59.676Z,45.00
2019-05-22T15:57:03.672Z,45.30
2019-05-22T15:59:08.518Z,44.30
2019-05-22T16:01:12.922Z,44.10
2019-05-22T16:03:22.622Z,44.50
2019-05-22T16:05:26.737Z,45.60
2019-05-22T16:07:30.202Z,44.70
2019-05-22T16:09:35.018Z,44.10
2019-05-22T16:11:38.855Z,44.70
2019-05-22T16:13:42.849Z,43.90
2019-05-22T16:15:48.537Z,43.80
2019-05-22T16:18:09.896Z,44.60
2019-05-22T16:19:58.213Z,44.50
2019-05-22T16:22:03.925Z,44.00
2019-05-22T16:24:07.837Z,43.40
2019-05-22T16:26:12.559Z,44.00
2019-05-22T16:28:16.234Z,43.70
2019-05-22T16:30:19.814Z,42.80
2019-05-22T16:32:23.162Z,42.50
2019-05-22T16:34:28.546Z,42.80
2019-05-22T16:36:32.581Z,42.70
2019-05-22T16:38:36.751Z,43.20
2019-05-22T16:40:40.103Z,42.80
2019-05-22T16:42:43.513Z,43.50
2019-05-22T16:44:46.966Z,42.60
2019-05-22T16:46:50.614Z,42.70
2019-05-22T16:48:54.298Z,42.70
2019-05-22T16:50:58.486Z,43.40
2019-05-22T16:53:04.504Z,42.60
2019-05-22T16:55:09.649Z,42.60
2019-05-22T16:57:12.959Z,42.20
2019-05-22T16:59:16.544Z,43.00
2019-05-22T17:01:21.166Z,44.10
2019-05-22T17:03:25.137Z,44.20
2019-05-22T17:05:29.683Z,43.10
2019-05-22T17:07:33.094Z,43.60
2019-05-22T17:09:37.362Z,44.00
2019-05-22T17:11:40.827Z,44.20
2019-05-22T17:13:44.188Z,44.50
2019-05-22T17:15:47.536Z,44.90
2019-05-22T17:17:50.777Z,44.50
2019-05-22T17:19:54.111Z,45.00
2019-05-22T17:21:58.066Z,45.40
2019-05-22T17:24:01.939Z,45.80
2019-05-22T17:26:05.476Z,46.10
2019-05-22T17:28:08.766Z,46.60
2019-05-22T17:30:12.570Z,46.60
2019-05-22T17:32:16.589Z,47.60
2019-05-22T17:34:33.856Z,47.10
2019-05-22T17:36:37.353Z,47.20
2019-05-22T17:38:40.971Z,48.00
2019-05-22T17:40:44.556Z,47.60
2019-05-22T17:42:48.802Z,48.10
2019-05-22T17:44:52.879Z,48.50
2019-05-22T17:46:56.153Z,48.70
2019-05-22T17:48:59.447Z,48.90
2019-05-22T17:51:03.080Z,49.10
2019-05-22T17:53:06.394Z,49.80
2019-05-22T17:55:09.908Z,50.40
2019-05-22T17:57:13.885Z,50.90
2019-05-22T17:59:17.162Z,51.00
2019-05-22T18:01:20.974Z,51.80
2019-05-22T18:03:24.435Z,51.60
2019-05-22T18:05:28.772Z,51.90
2019-05-22T18:07:32.563Z,52.10
2019-05-22T18:09:36.053Z,52.40
2019-05-22T18:11:39.363Z,52.60
2019-05-22T18:13:55.351Z,52.50
2019-05-22T18:15:58.796Z,52.60
2019-05-22T18:18:02.209Z,52.80
2019-05-22T18:20:07.398Z,53.10
2019-05-22T18:22:12.225Z,53.20
2019-05-22T18:24:15.613Z,53.30
2019-05-22T18:26:19.199Z,53.60
2019-05-22T18:28:23.052Z,53.80
2019-05-22T18:30:27.377Z,54.00
2019-05-22T18:32:31.795Z,54.20
2019-05-22T18:34:35.225Z,54.90
2019-05-22T18:36:38.514Z,54.50
2019-05-22T18:38:41.872Z,54.40
2019-05-22T18:40:45.609Z,54.50
2019-05-22T18:42:48.931Z,54.80
2019-05-22T18:44:52.230Z,54.90
2019-05-22T18:46:55.624Z,54.90
2019-05-22T18:48:58.972Z,55.20
2019-05-22T18:51:03.282Z,55.40
2019-05-22T18:53:06.778Z,55.60
2019-05-22T18:55:10.167Z,55.70
2019-05-22T18:57:13.685Z,55.70
2019-05-22T18:59:17.031Z,55.90
2019-05-22T19:01:20.796Z,56.20
2019-05-22T19:03:24.449Z,56.30
2019-05-22T19:05:29.237Z,56.40
2019-05-22T19:07:32.542Z,56.60
2019-05-22T19:09:35.807Z,56.90
2019-05-22T19:11:39.348Z,57.20
2019-05-22T19:13:42.722Z,57.60
2019-05-22T19:15:45.982Z,57.60
2019-05-22T19:17:49.378Z,57.60
2019-05-22T19:19:52.720Z,57.90
2019-05-22T19:21:56.085Z,58.00
2019-05-22T19:23:59.394Z,58.10
2019-05-22T19:26:05.687Z,57.90
2019-05-22T19:28:07.774Z,57.80
2019-05-22T19:30:11.876Z,58.70
2019-05-22T19:32:15.876Z,58.20
2019-05-22T19:34:19.634Z,58.10
2019-05-22T19:36:22.983Z,58.30
2019-05-22T19:38:26.344Z,58.90
2019-05-22T19:40:29.610Z,58.40
2019-05-22T19:42:32.940Z,58.50
2019-05-22T19:44:36.855Z,58.70
2019-05-22T19:46:40.239Z,58.70
2019-05-22T19:48:43.834Z,58.80
2019-05-22T19:50:48.047Z,58.80
2019-05-22T19:52:52.456Z,59.10
2019-05-22T19:54:55.742Z,59.30
2019-05-22T19:56:59.293Z,59.40
2019-05-22T19:59:02.892Z,59.50
2019-05-22T20:01:06.567Z,59.40
2019-05-22T20:03:10.128Z,59.90
2019-05-22T20:05:13.663Z,59.90
2019-05-22T20:07:17.426Z,60.00
2019-05-22T20:09:20.967Z,60.00
2019-05-22T20:11:24.505Z,60.00
2019-05-22T20:13:28.423Z,60.00
2019-05-22T20:15:31.980Z,59.90
2019-05-22T20:17:35.250Z,60.10
2019-05-22T20:19:38.546Z,60.10
2019-05-22T20:21:41.818Z,60.30
2019-05-22T20:23:45.558Z,60.40
2019-05-22T20:25:49.120Z,60.40
2019-05-22T20:27:53.044Z,60.80
2019-05-22T20:29:56.323Z,61.00
2019-05-22T20:31:59.659Z,60.70
2019-05-22T20:34:03.295Z,60.80
2019-05-22T20:36:06.848Z,62.00
2019-05-22T20:38:10.252Z,61.00
2019-05-22T20:40:13.707Z,60.80
2019-05-22T20:42:17.100Z,60.20
2019-05-22T20:44:20.674Z,62.30
2019-05-22T20:46:23.945Z,61.20
2019-05-22T20:48:28.492Z,61.40
2019-05-22T20:50:31.834Z,61.40
2019-05-22T20:52:35.381Z,61.40
2019-05-22T20:54:39.226Z,61.80
2019-05-22T20:56:43.873Z,61.50
2019-05-22T20:58:47.195Z,62.30
2019-05-22T21:00:51.605Z,61.50
2019-05-22T21:04:57.467Z,61.80
2019-05-22T21:07:03.240Z,62.00
2019-05-22T21:09:06.755Z,62.20
2019-05-22T21:11:11.005Z,62.10
2019-05-22T21:13:14.894Z,62.10
2019-05-22T21:15:18.252Z,62.20
2019-05-22T21:17:21.595Z,62.10
2019-05-22T21:19:24.915Z,63.00
2019-05-22T21:21:28.441Z,62.20
2019-05-22T21:23:32.171Z,62.10
2019-05-22T21:25:35.533Z,62.40
2019-05-22T21:27:39.245Z,62.80
2019-05-22T21:29:43.571Z,62.80
2019-05-22T21:31:47.793Z,63.10
2019-05-22T21:33:52.074Z,63.80
2019-05-22T21:35:55.500Z,63.20
2019-05-22T21:37:59.929Z,63.20
2019-05-22T21:40:04.418Z,63.20
2019-05-22T21:42:08.309Z,63.20
2019-05-22T21:44:11.623Z,63.40
2019-05-22T21:46:14.947Z,63.20
2019-05-22T21:48:19.888Z,63.60
2019-05-22T21:50:23.593Z,63.40
2019-05-22T21:52:28.038Z,63.50
2019-05-22T21:54:32.154Z,63.60
2019-05-22T21:58:39.904Z,63.70
2019-05-22T22:00:48.066Z,63.70
2019-05-22T22:02:52.782Z,63.50
2019-05-22T22:04:56.042Z,63.60
2019-05-22T22:06:59.510Z,63.80
2019-05-22T22:09:03.819Z,64.00
2019-05-22T22:11:08.885Z,63.90
2019-05-22T22:13:12.634Z,63.80
2019-05-22T22:15:16.910Z,63.60
2019-05-22T22:17:20.857Z,63.90
2019-05-22T22:19:25.376Z,63.80
2019-05-22T22:21:28.693Z,64.10
2019-05-22T22:23:32.029Z,64.10
2019-05-22T22:25:35.826Z,64.20
2019-05-22T22:27:39.870Z,64.10
2019-05-22T22:29:43.122Z,64.00
2019-05-22T22:31:48.294Z,64.40
2019-05-22T22:33:54.862Z,64.30
2019-05-22T22:35:58.457Z,64.40
2019-05-22T22:38:02.454Z,64.50
2019-05-22T22:40:05.723Z,64.10
2019-05-22T22:42:10.706Z,64.30
2019-05-22T22:44:14.922Z,64.40
2019-05-22T22:46:31.822Z,64.50
2019-05-22T22:48:38.983Z,64.40
2019-05-22T22:50:42.237Z,64.20
2019-05-22T22:52:45.865Z,64.30
2019-05-22T22:54:49.249Z,64.10
2019-05-22T22:56:52.636Z,64.60
2019-05-22T22:58:55.901Z,64.50
2019-05-22T23:01:00.115Z,65.20
2019-05-22T23:03:04.213Z,64.50
2019-05-22T23:05:08.028Z,64.80
2019-05-22T23:07:11.816Z,64.90
2019-05-22T23:09:15.199Z,65.10
2019-05-22T23:11:19.229Z,65.10
2019-05-22T23:13:23.465Z,65.20
2019-05-22T23:15:27.498Z,65.00
2019-05-22T23:17:32.126Z,65.00
2019-05-22T23:19:35.743Z,64.70
2019-05-22T23:21:39.737Z,64.90
2019-05-22T23:23:42.359Z,65.00
2019-05-22T23:25:45.617Z,65.00
2019-05-22T23:27:50.511Z,65.10
2019-05-22T23:29:54.175Z,65.00
2019-05-22T23:31:57.598Z,64.90
2019-05-22T23:34:01.242Z,64.90
2019-05-22T23:36:05.449Z,65.10
2019-05-22T23:38:08.755Z,65.20
2019-05-22T23:40:13.064Z,65.40
2019-05-22T23:42:17.157Z,65.50
2019-05-22T23:44:21.497Z,65.60
2019-05-22T23:46:25.136Z,65.00
2019-05-22T23:48:30.071Z,65.20
2019-05-22T23:50:34.077Z,65.20
2019-05-22T23:52:38.004Z,65.30
2019-05-22T23:54:41.301Z,65.40
2019-05-22T23:56:45.687Z,65.50
2019-05-22T23:58:52.679Z,65.40
